Time;durP1;ratioP1;P1;durP2;ratioP2;P2;SDS_P1;SDS_P2;PMS_P1;PMS_P2;Temp;Humidity;BMP_temperature;BMP_pressure;BME280_temperature;BME280_humidity;BME280_pressure;Samples;Min_cycle;Max_cycle;Signal;HPM_P1;HPM_P2
2021/07/04 00:04:29;;;;;;;25.58;23.02;;;20.70;99.90;;;;;;4829913;28;20055;-79
2021/07/04 00:07:45;;;;;;;22.83;20.42;;;20.70;99.90;;;;;;5001332;28;20212;-79
2021/07/04 00:10:27;;;;;;;23.23;20.77;;;20.80;99.90;;;;;;5000513;28;20058;-79
2021/07/04 00:13:00;;;;;;;27.60;21.67;;;20.80;99.90;;;;;;5017335;28;20061;-80
2021/07/04 00:15:41;;;;;;;24.90;22.25;;;20.80;99.90;;;;;;5016853;28;20092;-81
2021/07/04 00:22:26;;;;;;;27.10;21.30;;;20.70;99.90;;;;;;4993947;28;20053;-80
2021/07/04 00:24:56;;;;;;;27.35;24.60;;;20.70;99.90;;;;;;4922189;28;20132;-80
2021/07/04 00:27:28;;;;;;;29.48;25.50;;;20.70;99.90;;;;;;5015247;28;20045;-80
2021/07/04 00:37:32;;;;;;;31.98;28.38;;;20.50;99.90;;;;;;4925032;29;20066;-79
2021/07/04 00:47:27;;;;;;;37.60;30.05;;;20.10;99.90;;;;;;4931876;29;20044;-82
2021/07/04 00:53:38;;;;;;;37.95;31.38;;;20.00;99.90;;;;;;4938607;28;20050;-79
2021/07/04 01:03:12;;;;;;;;;;;;;;;;;;;;;
2021/07/04 01:06:30;;;;;;;34.70;29.60;;;19.90;99.90;;;;;;5011550;28;20079;-80
2021/07/04 01:10:13;;;;;;;36.83;31.42;;;19.90;99.90;;;;;;5013247;28;20521;-78
2021/07/04 01:13:14;;;;;;;35.53;31.80;;;19.90;99.90;;;;;;4990867;28;20082;-79
2021/07/04 01:15:45;;;;;;;37.03;32.78;;;19.90;99.90;;;;;;5014102;23;20104;-75
2021/07/04 01:18:12;;;;;;;35.35;31.30;;;19.80;99.90;;;;;;5023054;28;20054;-76
2021/07/04 01:20:40;;;;;;;36.28;31.95;;;19.80;99.90;;;;;;5031538;28;20565;-76
2021/07/04 01:23:10;;;;;;;35.13;31.05;;;19.70;99.90;;;;;;5031965;28;20041;-78
2021/07/04 01:25:41;;;;;;;35.85;31.77;;;19.70;99.90;;;;;;5031227;28;20146;-75
2021/07/04 01:28:08;;;;;;;33.90;30.25;;;19.70;99.90;;;;;;5031225;28;20050;-77
2021/07/04 01:30:36;;;;;;;34.95;30.50;;;19.70;99.90;;;;;;5031452;28;20410;-76
2021/07/04 01:33:03;;;;;;;37.80;29.58;;;19.60;99.90;;;;;;5031049;28;20144;-76
2021/07/04 01:35:30;;;;;;;32.55;28.92;;;19.60;99.90;;;;;;5031030;28;20053;-76
2021/07/04 01:37:57;;;;;;;34.65;28.50;;;19.60;99.90;;;;;;5031340;28;20151;-77
2021/07/04 01:40:25;;;;;;;32.45;28.30;;;19.50;99.90;;;;;;5031336;28;20136;-77
2021/07/04 01:42:53;;;;;;;32.90;27.88;;;19.60;99.90;;;;;;5031500;28;20136;-76
2021/07/04 01:45:21;;;;;;;34.47;28.55;;;19.60;99.90;;;;;;5035044;28;20053;-77
2021/07/04 01:47:50;;;;;;;35.28;29.48;;;19.50;99.90;;;;;;5035361;28;20053;-77
2021/07/04 01:50:19;;;;;;;37.38;28.58;;;19.50;99.90;;;;;;5035111;28;20053;-76
2021/07/04 01:52:45;;;;;;;32.15;26.45;;;19.50;99.90;;;;;;5035077;28;20054;-76
2021/07/04 01:55:14;;;;;;;33.03;26.17;;;19.40;99.90;;;;;;5034931;28;20485;-75
2021/07/04 01:57:42;;;;;;;32.10;25.05;;;19.50;99.90;;;;;;5035360;28;20195;-76
2021/07/04 02:00:13;;;;;;;30.58;24.75;;;19.50;99.90;;;;;;5035019;28;20459;-77
2021/07/04 02:02:40;;;;;;;30.50;24.75;;;19.50;99.90;;;;;;5034725;28;20045;-77
2021/07/04 02:05:08;;;;;;;30.02;21.65;;;19.50;99.90;;;;;;5034759;28;20084;-76
2021/07/04 02:07:35;;;;;;;28.73;20.88;;;19.50;99.90;;;;;;5035092;28;20088;-77
2021/07/04 02:10:05;;;;;;;25.90;21.27;;;19.50;99.90;;;;;;5035012;28;20061;-78
2021/07/04 02:12:31;;;;;;;26.08;21.25;;;19.50;99.90;;;;;;5034875;28;20132;-78
2021/07/04 02:15:00;;;;;;;22.30;19.33;;;19.40;99.90;;;;;;5034195;28;20088;-77
2021/07/04 02:17:27;;;;;;;23.70;19.75;;;19.40;99.90;;;;;;5034527;28;20046;-78
2021/07/04 02:19:54;;;;;;;20.50;18.08;;;19.40;99.90;;;;;;5034659;28;20450;-77
2021/07/04 02:22:21;;;;;;;25.45;17.98;;;19.40;99.90;;;;;;5034464;28;20132;-77
2021/07/04 02:24:47;;;;;;;19.73;17.63;;;19.40;99.90;;;;;;5034135;28;20053;-77
2021/07/04 02:27:14;;;;;;;27.52;18.00;;;19.30;99.90;;;;;;5034367;28;20045;-77
2021/07/04 02:29:41;;;;;;;19.05;17.10;;;19.30;99.90;;;;;;5034547;28;20081;-79
2021/07/04 02:32:10;;;;;;;20.83;17.40;;;19.30;99.90;;;;;;5034395;28;20124;-78
2021/07/04 02:34:36;;;;;;;19.83;17.73;;;19.20;99.90;;;;;;5034167;28;20172;-78
2021/07/04 02:37:04;;;;;;;21.52;17.90;;;19.20;99.90;;;;;;5034159;28;20060;-78
2021/07/04 02:39:31;;;;;;;23.80;19.33;;;19.20;99.90;;;;;;5035489;28;20050;-79
2021/07/04 02:41:58;;;;;;;21.98;18.33;;;19.20;99.90;;;;;;5035595;28;20068;-78
2021/07/04 02:44:25;;;;;;;21.30;19.05;;;19.10;99.90;;;;;;5034444;28;20557;-78
2021/07/04 02:46:51;;;;;;;24.65;18.75;;;19.10;99.90;;;;;;5034989;28;20132;-78
2021/07/04 02:49:20;;;;;;;21.40;19.10;;;19.10;99.90;;;;;;5034313;28;20149;-78
2021/07/04 02:51:47;;;;;;;23.13;20.30;;;19.10;99.90;;;;;;5034348;28;20132;-78
2021/07/04 02:54:13;;;;;;;26.77;20.70;;;19.10;99.90;;;;;;5033827;28;20053;-77
2021/07/04 02:56:40;;;;;;;24.95;20.75;;;19.10;99.90;;;;;;5034084;28;20080;-76
2021/07/04 02:59:07;;;;;;;26.67;21.55;;;19.10;99.90;;;;;;5033922;28;20480;-77
2021/07/04 03:01:34;;;;;;;28.98;22.55;;;19.10;99.90;;;;;;5033947;28;20127;-77
2021/07/04 03:04:01;;;;;;;31.95;22.67;;;19.10;99.90;;;;;;5034256;28;20132;-76
2021/07/04 03:06:29;;;;;;;28.48;23.10;;;19.00;99.90;;;;;;5033595;28;20049;-75
2021/07/04 03:08:56;;;;;;;27.33;24.27;;;18.90;99.90;;;;;;5033558;28;20076;-77
2021/07/04 03:11:23;;;;;;;30.75;25.52;;;18.90;99.90;;;;;;5033495;28;20586;-77
2021/07/04 03:13:50;;;;;;;30.23;26.92;;;18.90;99.90;;;;;;5033301;28;20072;-78
2021/07/04 03:16:16;;;;;;;35.38;29.30;;;18.90;99.90;;;;;;5033393;28;20140;-77
2021/07/04 03:18:43;;;;;;;31.55;27.67;;;18.80;99.90;;;;;;5033645;28;20564;-78
2021/07/04 03:21:10;;;;;;;33.08;27.58;;;18.90;99.90;;;;;;5033668;28;20432;-77
2021/07/04 03:23:38;;;;;;;34.85;28.40;;;19.00;99.90;;;;;;5033145;28;20158;-77
2021/07/04 03:26:05;;;;;;;33.15;27.60;;;19.00;99.90;;;;;;5033132;28;20049;-76
2021/07/04 03:28:32;;;;;;;34.10;27.83;;;19.10;99.90;;;;;;5033247;28;20128;-77
2021/07/04 03:30:59;;;;;;;33.10;29.05;;;19.10;99.90;;;;;;5033499;28;20125;-77
2021/07/04 03:33:26;;;;;;;33.50;28.98;;;19.10;99.90;;;;;;5033239;28;20145;-77
2021/07/04 03:35:53;;;;;;;37.30;29.58;;;19.10;99.90;;;;;;5033220;28;20136;-77
2021/07/04 03:38:20;;;;;;;39.22;29.23;;;19.00;99.90;;;;;;5033125;28;20083;-77
2021/07/04 03:40:48;;;;;;;37.90;29.90;;;19.00;99.90;;;;;;5032966;28;20132;-77
2021/07/04 03:43:15;;;;;;;35.72;28.98;;;19.10;99.90;;;;;;5033019;28;20412;-78
2021/07/04 03:45:42;;;;;;;32.22;28.02;;;19.10;99.90;;;;;;5032947;28;20481;-77
2021/07/04 03:48:09;;;;;;;34.05;28.50;;;19.10;99.90;;;;;;5032998;28;20485;-77
2021/07/04 03:50:36;;;;;;;34.90;28.73;;;19.10;99.90;;;;;;5032814;28;20057;-78
2021/07/04 03:53:03;;;;;;;31.13;27.50;;;19.20;99.90;;;;;;5032575;28;20056;-78
2021/07/04 03:55:30;;;;;;;32.67;29.13;;;19.20;99.90;;;;;;5032852;28;20049;-78
2021/07/04 03:57:58;;;;;;;33.75;29.83;;;19.20;99.90;;;;;;5033099;28;20055;-78
2021/07/04 04:00:26;;;;;;;35.83;28.83;;;19.30;99.90;;;;;;5033099;28;20136;-77
2021/07/04 04:02:53;;;;;;;34.13;28.70;;;19.30;99.90;;;;;;5033140;28;20049;-77
2021/07/04 04:05:20;;;;;;;34.35;27.02;;;19.20;99.90;;;;;;5032823;28;20132;-78
2021/07/04 04:07:47;;;;;;;34.65;28.75;;;19.30;99.90;;;;;;5032221;28;20550;-78
2021/07/04 04:10:15;;;;;;;36.28;27.95;;;19.30;99.90;;;;;;5032612;28;20052;-78
2021/07/04 04:12:42;;;;;;;36.30;27.65;;;19.30;99.90;;;;;;5032510;28;20049;-78
2021/07/04 04:15:13;;;;;;;33.85;27.98;;;19.40;99.90;;;;;;5032168;28;20076;-76
2021/07/04 04:17:40;;;;;;;34.25;27.33;;;19.40;99.90;;;;;;5032390;28;20092;-77
2021/07/04 04:20:08;;;;;;;34.65;27.33;;;19.40;99.90;;;;;;5032293;28;20088;-78
2021/07/04 04:22:36;;;;;;;29.65;26.48;;;19.50;99.90;;;;;;5032351;28;20081;-78
2021/07/04 04:25:03;;;;;;;28.60;25.67;;;19.50;99.90;;;;;;5032125;28;20088;-78
2021/07/04 04:27:30;;;;;;;31.02;24.40;;;19.50;99.90;;;;;;5032148;28;20049;-79
2021/07/04 04:29:57;;;;;;;28.08;22.60;;;19.60;99.90;;;;;;5032184;28;20136;-78
2021/07/04 04:32:25;;;;;;;25.05;21.35;;;19.60;99.90;;;;;;5031898;28;20041;-78
2021/07/04 04:34:52;;;;;;;26.30;21.58;;;19.60;99.90;;;;;;5031550;28;20049;-78
2021/07/04 04:37:19;;;;;;;27.15;21.35;;;19.70;99.90;;;;;;5032168;28;20084;-78
2021/07/04 04:39:46;;;;;;;27.35;22.20;;;19.70;99.90;;;;;;5032188;28;20056;-78
2021/07/04 04:42:12;;;;;;;25.10;22.30;;;19.60;99.90;;;;;;5031927;28;20076;-77
2021/07/04 04:44:40;;;;;;;26.95;21.08;;;19.60;99.90;;;;;;5031695;28;20148;-78
2021/07/04 04:47:07;;;;;;;43.80;21.88;;;19.60;99.90;;;;;;5031825;28;20165;-77
2021/07/04 04:49:36;;;;;;;26.80;21.65;;;19.60;99.90;;;;;;5031608;28;20399;-77
2021/07/04 04:52:03;;;;;;;27.00;21.50;;;19.60;99.90;;;;;;5031930;28;20132;-78
2021/07/04 04:54:30;;;;;;;25.20;20.98;;;19.60;99.90;;;;;;5031612;28;20124;-78
2021/07/04 04:57:05;;;;;;;24.58;21.95;;;19.60;99.90;;;;;;5031751;28;20141;-78
2021/07/04 04:59:32;;;;;;;23.98;20.30;;;19.60;99.90;;;;;;5031837;28;20053;-77
2021/07/04 05:01:59;;;;;;;24.95;20.20;;;19.60;99.90;;;;;;5034125;28;20096;-78
2021/07/04 05:04:26;;;;;;;23.58;20.08;;;19.60;99.90;;;;;;5034500;28;20115;-79
2021/07/04 05:06:54;;;;;;;28.67;21.10;;;19.70;99.90;;;;;;5032310;28;20050;-78
2021/07/04 05:09:21;;;;;;;26.77;20.92;;;19.70;99.90;;;;;;5032416;28;20126;-78
2021/07/04 05:11:49;;;;;;;29.02;22.30;;;19.60;99.90;;;;;;5031477;28;20136;-78
2021/07/04 05:14:16;;;;;;;26.80;22.38;;;19.60;99.90;;;;;;5031410;28;20057;-78
2021/07/04 05:16:43;;;;;;;26.52;21.60;;;19.70;99.90;;;;;;5031237;28;20136;-78
2021/07/04 05:19:11;;;;;;;22.20;19.83;;;19.70;99.90;;;;;;5031436;28;20136;-78
2021/07/04 05:21:38;;;;;;;28.13;19.77;;;19.80;99.90;;;;;;5031685;28;20425;-78
2021/07/04 05:24:09;;;;;;;24.80;19.42;;;20.00;99.90;;;;;;5031316;28;20077;-78
2021/07/04 05:26:36;;;;;;;21.65;18.75;;;20.10;99.90;;;;;;5031367;28;20128;-78
2021/07/04 05:29:03;;;;;;;20.67;18.33;;;20.20;99.90;;;;;;5031434;28;20080;-76
2021/07/04 05:31:30;;;;;;;18.52;16.52;;;20.30;99.90;;;;;;5031741;28;20565;-78
2021/07/04 05:33:57;;;;;;;19.85;17.52;;;20.50;99.90;;;;;;5031208;28;20597;-77
2021/07/04 05:36:25;;;;;;;20.67;17.38;;;20.70;99.90;;;;;;5031264;28;20049;-77
2021/07/04 05:38:52;;;;;;;18.77;16.58;;;20.80;99.90;;;;;;5031505;28;20057;-77
2021/07/04 05:41:20;;;;;;;18.75;16.80;;;20.90;99.90;;;;;;5031329;28;20061;-79
2021/07/04 05:43:49;;;;;;;19.13;16.13;;;21.00;99.90;;;;;;5032333;28;20085;-79
2021/07/04 05:46:16;;;;;;;18.55;16.20;;;21.10;99.90;;;;;;5032893;28;20084;-78
2021/07/04 05:48:45;;;;;;;16.95;15.20;;;21.30;99.90;;;;;;5032944;28;20049;-79
2021/07/04 05:51:12;;;;;;;22.23;14.85;;;21.70;99.90;;;;;;5032118;28;20060;-78
2021/07/04 05:53:39;;;;;;;16.08;13.88;;;22.10;99.90;;;;;;5031264;28;20128;-77
2021/07/04 05:56:06;;;;;;;19.27;15.20;;;22.60;99.90;;;;;;5031119;28;20600;-77
2021/07/04 05:58:34;;;;;;;15.63;14.13;;;23.20;99.90;;;;;;5031497;28;20177;-77
2021/07/04 06:01:01;;;;;;;17.98;13.85;;;23.30;99.90;;;;;;5031555;28;20081;-79
2021/07/04 06:03:28;;;;;;;18.65;13.82;;;23.60;99.90;;;;;;5031073;28;20107;-79
2021/07/04 06:05:55;;;;;;;13.43;12.02;;;24.20;99.90;;;;;;5031333;28;20085;-78
2021/07/04 06:08:22;;;;;;;15.98;12.05;;;25.20;99.90;;;;;;5031229;28;20132;-78
2021/07/04 06:10:51;;;;;;;12.70;11.38;;;25.80;99.90;;;;;;5031140;28;20054;-78
2021/07/04 06:13:18;;;;;;;13.90;12.40;;;26.20;99.90;;;;;;5031009;28;20045;-78
2021/07/04 06:15:46;;;;;;;12.75;10.75;;;26.50;99.90;;;;;;5031261;28;20501;-78
2021/07/04 06:18:14;;;;;;;16.15;10.25;;;26.70;99.90;;;;;;5031622;28;20049;-79
2021/07/04 06:20:40;;;;;;;14.13;10.68;;;26.80;99.90;;;;;;5030903;28;20081;-78
2021/07/04 06:23:07;;;;;;;12.90;11.10;;;26.50;99.90;;;;;;5031140;28;20148;-78
2021/07/04 06:25:34;;;;;;;12.90;10.27;;;26.20;99.90;;;;;;5030953;28;20081;-79
2021/07/04 06:28:01;;;;;;;11.88;10.20;;;26.50;99.90;;;;;;5031032;28;20103;-78
2021/07/04 06:30:28;;;;;;;12.35;10.32;;;26.90;99.90;;;;;;5033599;28;20418;-78
2021/07/04 06:32:59;;;;;;;11.40;10.18;;;27.50;99.90;;;;;;5034910;28;20136;-78
2021/07/04 06:35:27;;;;;;;12.05;10.43;;;27.60;99.90;;;;;;5034732;28;20057;-77
2021/07/04 06:37:54;;;;;;;13.45;9.40;;;27.40;99.90;;;;;;5034922;28;20482;-78
2021/07/04 06:40:21;;;;;;;16.67;10.40;;;27.40;99.90;;;;;;5034485;28;20049;-78
2021/07/04 06:42:48;;;;;;;10.38;9.13;;;27.80;99.90;;;;;;5034703;28;20084;-78
2021/07/04 06:45:16;;;;;;;11.70;10.60;;;28.20;99.90;;;;;;5034716;28;20137;-78
2021/07/04 06:47:50;;;;;;;11.82;10.15;;;28.30;99.90;;;;;;5034392;28;20544;-78
2021/07/04 06:50:21;;;;;;;11.27;9.60;;;28.00;99.90;;;;;;5034429;28;20065;-78
2021/07/04 06:52:50;;;;;;;10.25;8.57;;;28.20;99.90;;;;;;5034929;28;20063;-78
2021/07/04 06:55:17;;;;;;;12.45;9.68;;;28.50;99.90;;;;;;5034227;28;20160;-77
2021/07/04 06:57:45;;;;;;;12.00;10.60;;;28.30;99.90;;;;;;5033829;28;20139;-78
2021/07/04 07:00:14;;;;;;;13.73;10.63;;;27.80;99.90;;;;;;5034078;28;20077;-78
2021/07/04 07:02:41;;;;;;;11.95;10.48;;;27.40;99.90;;;;;;5035334;28;20092;-80
2021/07/04 07:05:10;;;;;;;16.05;11.40;;;27.00;99.90;;;;;;5038049;28;20068;-77
2021/07/04 07:07:39;;;;;;;17.63;11.95;;;26.70;99.90;;;;;;5035310;28;20049;-77
2021/07/04 07:10:07;;;;;;;12.73;10.95;;;26.50;99.90;;;;;;5033049;28;20136;-79
2021/07/04 07:12:34;;;;;;;15.68;10.38;;;26.00;99.90;;;;;;5033636;28;20469;-77
2021/07/04 07:17:45;;;;;;;9.93;8.95;;;25.40;99.90;;;;;;5030568;28;20049;-80
2021/07/04 07:20:13;;;;;;;11.25;10.13;;;25.50;99.90;;;;;;5015595;28;20104;-79
2021/07/04 07:22:41;;;;;;;14.23;10.75;;;25.70;99.90;;;;;;5015677;28;20053;-80
2021/07/04 07:25:10;;;;;;;13.85;10.55;;;25.40;99.90;;;;;;5017827;28;20133;-80
2021/07/04 07:27:38;;;;;;;11.40;10.23;;;25.50;99.90;;;;;;4997857;28;20084;-81
2021/07/04 07:30:12;;;;;;;14.35;10.80;;;25.60;99.90;;;;;;4999036;28;20081;-80
2021/07/04 07:33:07;;;;;;;11.95;10.75;;;25.80;99.90;;;;;;4998734;28;20325;-79
2021/07/04 07:35:39;;;;;;;10.70;9.18;;;25.70;99.90;;;;;;4995935;28;20074;-80
2021/07/04 07:38:18;;;;;;;13.97;9.37;;;25.90;99.90;;;;;;4998161;28;20053;-80
2021/07/04 07:40:45;;;;;;;11.68;10.00;;;26.40;99.90;;;;;;4993721;28;20058;-79
2021/07/04 07:43:12;;;;;;;12.30;10.77;;;26.90;99.90;;;;;;4994224;28;20085;-80
2021/07/04 07:45:40;;;;;;;11.15;10.02;;;27.00;99.90;;;;;;4996968;28;20101;-78
2021/07/04 07:48:07;;;;;;;13.10;10.60;;;27.10;99.90;;;;;;4997279;28;20096;-80
2021/07/04 07:50:34;;;;;;;11.70;10.18;;;27.20;99.90;;;;;;5017812;28;20565;-78
2021/07/04 07:53:01;;;;;;;13.25;10.77;;;27.20;99.90;;;;;;5013463;28;20058;-79
2021/07/04 07:55:30;;;;;;;11.27;10.07;;;27.30;99.90;;;;;;5012761;28;20049;-81
2021/07/04 07:57:56;;;;;;;12.18;10.98;;;27.50;99.90;;;;;;5012526;28;20053;-81
2021/07/04 08:00:24;;;;;;;12.70;10.45;;;27.80;99.90;;;;;;5016230;28;20141;-80
2021/07/04 08:02:51;;;;;;;10.77;9.77;;;28.30;99.90;;;;;;5003880;28;20133;-81
2021/07/04 08:05:18;;;;;;;11.25;10.13;;;29.10;99.90;;;;;;4994135;28;20046;-80
2021/07/04 08:07:45;;;;;;;11.88;9.80;;;29.90;99.90;;;;;;5005877;28;20050;-79
2021/07/04 08:10:13;;;;;;;10.75;9.77;;;30.40;99.90;;;;;;5003323;28;20053;-80
2021/07/04 08:12:42;;;;;;;11.93;10.68;;;30.30;99.90;;;;;;5002765;28;20161;-79
2021/07/04 08:15:10;;;;;;;10.43;9.43;;;30.50;99.90;;;;;;5000308;28;20129;-78
2021/07/04 08:17:37;;;;;;;13.95;9.93;;;30.80;99.90;;;;;;5001516;28;20046;-77
2021/07/04 08:20:08;;;;;;;11.20;8.90;;;31.10;99.90;;;;;;5000838;28;20054;-78
2021/07/04 08:22:38;;;;;;;14.73;10.67;;;30.80;99.90;;;;;;5003419;28;20064;-77
2021/07/04 08:25:07;;;;;;;12.15;9.95;;;30.80;99.90;;;;;;5000464;28;20074;-79
2021/07/04 08:27:37;;;;;;;14.10;12.15;;;31.00;99.90;;;;;;5003686;28;20510;-82
2021/07/04 08:30:07;;;;;;;11.88;10.23;;;31.10;99.90;;;;;;5002808;28;20050;-78
2021/07/04 08:32:34;;;;;;;11.80;10.60;;;30.60;99.90;;;;;;4993599;28;20101;-78
2021/07/04 08:35:01;;;;;;;14.15;11.20;;;30.20;99.90;;;;;;4991097;28;20139;-80
2021/07/04 08:37:28;;;;;;;13.13;9.90;;;30.30;99.90;;;;;;4995279;28;20133;-79
2021/07/04 08:39:55;;;;;;;11.80;10.40;;;30.10;99.90;;;;;;4994718;28;20251;-77
2021/07/04 08:42:22;;;;;;;11.15;9.00;;;29.90;99.90;;;;;;4996144;28;20049;-79
2021/07/04 08:44:52;;;;;;;10.10;9.05;;;30.20;99.90;;;;;;4998162;28;20047;-79
2021/07/04 08:47:21;;;;;;;13.23;9.95;;;30.10;99.90;;;;;;4995686;28;20065;-79
2021/07/04 08:49:49;;;;;;;12.23;9.15;;;29.60;99.90;;;;;;4996296;28;20136;-79
2021/07/04 08:52:18;;;;;;;11.68;8.35;;;29.30;99.90;;;;;;4992829;28;20114;-78
2021/07/04 08:54:45;;;;;;;10.43;8.70;;;29.30;99.90;;;;;;4996427;28;20074;-78
2021/07/04 08:57:15;;;;;;;9.00;7.80;;;29.30;99.90;;;;;;4996310;28;20129;-78
2021/07/04 08:59:44;;;;;;;10.63;7.93;;;29.90;99.90;;;;;;4996194;28;20054;-78
2021/07/04 09:02:13;;;;;;;10.95;7.80;;;30.50;99.90;;;;;;4996950;28;20467;-79
2021/07/04 09:05:00;;;;;;;8.27;7.43;;;31.00;99.90;;;;;;4995328;28;20058;-78
2021/07/04 09:07:27;;;;;;;9.02;8.10;;;31.50;99.90;;;;;;4994687;28;20056;-79
2021/07/04 09:09:57;;;;;;;9.80;7.93;;;31.30;99.90;;;;;;4997231;28;20110;-79
2021/07/04 09:12:36;;;;;;;8.55;7.70;;;31.00;99.90;;;;;;4997963;28;20137;-79
2021/07/04 09:15:13;;;;;;;8.95;7.70;;;31.10;99.90;;;;;;4997369;28;20057;-80
2021/07/04 09:17:44;;;;;;;8.95;8.05;;;31.30;99.90;;;;;;4998180;28;20089;-78
2021/07/04 09:20:15;;;;;;;9.57;7.50;;;31.40;99.90;;;;;;4996501;28;20058;-80
2021/07/04 09:22:45;;;;;;;9.52;8.27;;;31.60;99.90;;;;;;4996186;28;20090;-79
2021/07/04 09:25:18;;;;;;;10.57;8.05;;;31.50;99.90;;;;;;4996351;28;20121;-79
2021/07/04 09:28:02;;;;;;;11.73;8.18;;;31.60;99.90;;;;;;4997285;28;20050;-79
2021/07/04 09:30:34;;;;;;;11.10;8.75;;;31.60;99.90;;;;;;4996995;28;20116;-80
2021/07/04 09:33:09;;;;;;;;;;;31.80;99.90;;;;;;4998368;28;20050;-81
2021/07/04 09:35:39;;;;;;;9.65;8.48;;;31.60;99.90;;;;;;4999633;28;19961;-79
2021/07/04 09:38:14;;;;;;;12.35;8.00;;;31.30;99.90;;;;;;4997768;28;20081;-80
2021/07/04 09:40:41;;;;;;;9.82;8.85;;;31.30;99.90;;;;;;4996560;28;20137;-80
2021/07/04 09:43:14;;;;;;;9.68;8.70;;;30.90;99.90;;;;;;4996487;28;20070;-79
2021/07/04 09:45:47;;;;;;;9.60;8.63;;;29.70;99.90;;;;;;4996578;28;20050;-80
2021/07/04 09:48:17;;;;;;;10.63;8.73;;;29.00;99.90;;;;;;4997105;28;20054;-79
2021/07/04 09:50:47;;;;;;;9.35;8.45;;;28.50;99.90;;;;;;4998595;28;20047;-81
2021/07/04 09:53:14;;;;;;;9.93;8.90;;;28.10;99.90;;;;;;4997354;28;20146;-78
2021/07/04 09:55:42;;;;;;;10.95;9.15;;;27.90;99.90;;;;;;4999267;28;20050;-79
2021/07/04 09:58:10;;;;;;;9.93;8.82;;;27.70;99.90;;;;;;4998786;28;20070;-78
2021/07/04 10:00:39;;;;;;;10.85;9.65;;;27.60;99.90;;;;;;4999396;28;20082;-78
2021/07/04 10:03:17;;;;;;;11.00;9.55;;;27.20;99.90;;;;;;5000987;28;20057;-79
2021/07/04 10:06:00;;;;;;;10.40;9.32;;;26.80;99.90;;;;;;5005195;28;20096;-79
2021/07/04 10:08:29;;;;;;;12.07;9.50;;;26.50;99.90;;;;;;5002900;28;20549;-80
2021/07/04 10:10:58;;;;;;;11.02;8.98;;;26.30;99.90;;;;;;4999307;28;20133;-79
2021/07/04 10:13:25;;;;;;;10.20;9.15;;;26.30;99.90;;;;;;4999044;28;20109;-79
2021/07/04 10:15:53;;;;;;;9.82;8.70;;;26.40;99.90;;;;;;4999435;28;20078;-80
2021/07/04 10:18:20;;;;;;;9.48;8.48;;;26.70;99.90;;;;;;5000077;28;20148;-78
2021/07/04 10:20:51;;;;;;;12.38;9.18;;;27.20;99.90;;;;;;5000107;28;20089;-80
2021/07/04 10:23:19;;;;;;;12.13;9.70;;;27.60;99.90;;;;;;4996991;28;20089;-84
2021/07/04 10:25:47;;;;;;;11.48;9.10;;;27.70;99.90;;;;;;4999262;28;20082;-80
2021/07/04 10:28:17;;;;;;;10.63;9.50;;;27.50;99.90;;;;;;5001881;28;20093;-80
2021/07/04 10:30:48;;;;;;;12.05;10.38;;;27.40;99.90;;;;;;5003098;28;20047;-80
2021/07/04 10:33:19;;;;;;;11.38;9.45;;;27.40;99.90;;;;;;5004285;28;20330;-82
2021/07/04 10:36:08;;;;;;;11.07;9.07;;;27.30;99.90;;;;;;5004495;28;20050;-82
2021/07/04 10:38:57;;;;;;;10.32;9.32;;;27.30;99.90;;;;;;5008829;28;20077;-83
2021/07/04 10:41:31;;;;;;;10.88;9.75;;;27.00;99.90;;;;;;5009697;28;20090;-80
2021/07/04 10:44:04;;;;;;;12.02;10.05;;;26.70;99.90;;;;;;5010362;28;20054;-82
2021/07/04 10:47:09;;;;;;;11.23;9.43;;;26.60;99.90;;;;;;5010771;28;20556;-82
2021/07/04 10:49:48;;;;;;;10.70;9.63;;;26.20;99.90;;;;;;5010596;28;20081;-83
2021/07/04 10:52:19;;;;;;;12.63;11.32;;;26.00;99.90;;;;;;5012055;28;20081;-82
2021/07/04 10:54:50;;;;;;;12.27;10.87;;;25.70;99.90;;;;;;5016379;28;20136;-84
2021/07/04 10:57:21;;;;;;;11.93;10.43;;;25.60;99.90;;;;;;5013319;28;20297;-83
2021/07/04 11:00:12;;;;;;;11.07;9.98;;;25.60;99.90;;;;;;5012131;28;20050;-82
2021/07/04 11:02:41;;;;;;;9.20;8.35;;;25.70;99.90;;;;;;5009778;28;20054;-82
2021/07/04 11:05:10;;;;;;;9.93;7.95;;;26.10;99.90;;;;;;5011482;28;20050;-83
2021/07/04 11:08:06;;;;;;;8.80;7.93;;;26.20;99.90;;;;;;5010601;28;20081;-82
2021/07/04 11:10:34;;;;;;;10.10;7.03;;;26.40;99.90;;;;;;5006902;28;20190;-84
2021/07/04 11:13:41;;;;;;;7.50;6.80;;;26.50;99.90;;;;;;5008611;28;20113;-83
2021/07/04 11:16:13;;;;;;;8.23;7.43;;;26.40;99.90;;;;;;5002897;28;20046;-83
2021/07/04 11:18:42;;;;;;;8.20;7.40;;;26.40;99.90;;;;;;5009324;28;20082;-83
2021/07/04 11:21:11;;;;;;;9.25;6.47;;;26.40;99.90;;;;;;5009856;28;20060;-83
2021/07/04 11:23:39;;;;;;;8.13;6.70;;;26.10;99.90;;;;;;5006206;28;20082;-82
2021/07/04 11:26:17;;;;;;;8.90;5.40;;;25.90;99.90;;;;;;5002701;28;20131;-82
2021/07/04 11:28:46;;;;;;;6.47;5.43;;;25.90;99.90;;;;;;5004246;28;20046;-83
2021/07/04 11:31:30;;;;;;;6.10;5.50;;;25.70;99.90;;;;;;5008604;28;20046;-84
2021/07/04 11:33:58;;;;;;;5.88;5.28;;;25.50;99.90;;;;;;5003566;28;20088;-84
2021/07/04 11:36:27;;;;;;;5.72;5.13;;;25.40;99.90;;;;;;5009863;28;20038;-84
2021/07/04 11:38:57;;;;;;;6.55;5.18;;;25.50;99.90;;;;;;5006295;28;20050;-85
2021/07/04 11:41:26;;;;;;;5.93;5.05;;;25.70;99.90;;;;;;5004804;28;20506;-83
2021/07/04 11:43:56;;;;;;;5.88;4.70;;;25.90;99.90;;;;;;5004872;28;20042;-84
2021/07/04 11:46:25;;;;;;;6.72;5.15;;;25.70;99.90;;;;;;5005473;28;20046;-83
2021/07/04 11:48:55;;;;;;;6.75;5.40;;;25.80;99.90;;;;;;5016087;28;20150;-83
2021/07/04 11:51:25;;;;;;;7.65;5.40;;;25.80;99.90;;;;;;5012700;28;20108;-83
2021/07/04 11:53:54;;;;;;;5.47;4.85;;;26.00;99.90;;;;;;5013022;28;20140;-84
2021/07/04 11:56:22;;;;;;;5.82;5.20;;;26.20;99.90;;;;;;5010245;28;20129;-84
2021/07/04 11:58:49;;;;;;;5.70;5.10;;;26.40;99.90;;;;;;5008465;28;20046;-82
2021/07/04 12:01:18;;;;;;;5.88;5.00;;;26.60;99.90;;;;;;5010559;28;20134;-83
2021/07/04 12:03:49;;;;;;;5.88;5.35;;;26.50;99.90;;;;;;5012671;28;20426;-82
2021/07/04 12:06:16;;;;;;;6.60;5.60;;;26.60;99.90;;;;;;5007540;28;20057;-83
2021/07/04 12:08:59;;;;;;;6.00;5.40;;;26.50;99.90;;;;;;5011155;28;20046;-83
2021/07/04 12:11:54;;;;;;;6.10;4.90;;;26.50;99.90;;;;;;5004019;28;20081;-82
2021/07/04 12:14:23;;;;;;;5.80;5.28;;;26.60;99.90;;;;;;4999823;28;20053;-82
2021/07/04 12:16:50;;;;;;;5.80;5.25;;;26.60;99.90;;;;;;5015287;28;20569;-82
2021/07/04 12:19:28;;;;;;;6.45;5.40;;;26.20;99.90;;;;;;5015549;28;20050;-82
2021/07/04 12:21:55;;;;;;;6.28;5.18;;;26.30;99.90;;;;;;4982068;28;20086;-83
2021/07/04 12:24:38;;;;;;;7.38;5.88;;;26.40;99.90;;;;;;5013244;28;20085;-84
2021/07/04 12:27:07;;;;;;;6.43;5.18;;;26.40;99.90;;;;;;5006333;28;20449;-83
2021/07/04 12:29:58;;;;;;;6.47;5.68;;;26.30;99.90;;;;;;5005027;28;20085;-82
2021/07/04 12:32:25;;;;;;;7.32;6.20;;;26.00;99.90;;;;;;5004381;28;20150;-83
2021/07/04 12:34:55;;;;;;;6.65;5.65;;;26.00;99.90;;;;;;5002862;28;20047;-82
2021/07/04 12:37:23;;;;;;;7.65;5.18;;;26.00;99.90;;;;;;5005623;28;20049;-82
2021/07/04 12:39:50;;;;;;;10.23;4.88;;;25.90;99.90;;;;;;5012173;28;20245;-81
2021/07/04 12:42:26;;;;;;;5.63;4.70;;;25.50;99.90;;;;;;5010615;28;20070;-83
2021/07/04 12:45:04;;;;;;;9.95;4.90;;;25.20;99.90;;;;;;5010078;28;20325;-84
2021/07/04 12:47:33;;;;;;;6.25;4.97;;;24.70;99.90;;;;;;5010627;28;20074;-83
2021/07/04 12:50:01;;;;;;;7.13;5.53;;;24.20;99.90;;;;;;5011585;28;20050;-84
2021/07/04 12:52:28;;;;;;;8.52;5.57;;;23.60;99.90;;;;;;5006976;28;20073;-84
2021/07/04 12:54:58;;;;;;;7.03;5.05;;;23.30;99.90;;;;;;5005707;28;20471;-83
2021/07/04 12:57:47;;;;;;;8.02;5.32;;;23.20;99.90;;;;;;5006211;28;20085;-83
2021/07/04 13:00:16;;;;;;;8.52;4.10;;;23.00;99.90;;;;;;5007179;28;20113;-83
2021/07/04 13:02:46;;;;;;;4.95;3.90;;;22.90;99.90;;;;;;5004343;28;20050;-82
2021/07/04 13:05:15;;;;;;;6.93;3.90;;;22.80;99.90;;;;;;5005838;28;20108;-80
2021/07/04 13:07:44;;;;;;;3.45;2.90;;;22.50;99.90;;;;;;5008509;28;20078;-80
2021/07/04 13:10:13;;;;;;;4.00;3.35;;;22.00;99.90;;;;;;5015706;28;20136;-79
2021/07/04 13:12:42;;;;;;;15.00;3.92;;;21.60;99.90;;;;;;5020674;28;20050;-82
2021/07/04 13:15:16;;;;;;;15.05;5.20;;;21.20;99.90;;;;;;5013671;28;20058;-80
2021/07/04 13:17:52;;;;;;;11.55;4.05;;;20.80;99.90;;;;;;5044524;23;20042;-83
2021/07/04 13:20:40;;;;;;;9.32;3.75;;;20.30;99.90;;;;;;5026243;28;20132;-78
2021/07/04 13:23:17;;;;;;;10.30;3.90;;;19.40;99.90;;;;;;5020349;28;20140;-79
2021/07/04 13:25:54;;;;;;;11.05;4.10;;;18.70;99.90;;;;;;5019444;28;20124;-80
2021/07/04 13:28:39;;;;;;;7.80;3.05;;;18.40;99.90;;;;;;5005417;28;20597;-79